ICT,Max TemperatureF,Mean TemperatureF,Min TemperatureF,Max Dew PointF,MeanDew PointF,Min DewpointF,Max Humidity, Mean Humidity, Min Humidity, Max Sea Level PressureIn, Mean Sea Level PressureIn, Min Sea Level PressureIn, Max VisibilityMiles, Mean VisibilityMiles, Min VisibilityMiles, Max Wind SpeedMPH, Mean Wind SpeedMPH, Max Gust SpeedMPH,PrecipitationIn, CloudCover, Events, WindDirDegrees
2013-1-1,84,74,64,64,63,61,88,70,48,29.98,29.88,29.80,6,4,1,6,2,,0.00,4,,142
2013-1-2,86,75,64,66,63,61,94,68,45,29.98,29.88,29.83,6,5,2,4,0,,0.00,5,,300
2013-1-3,89,66,64,64,62,61,88,75,40,30.01,29.93,29.83,6,3,2,4,0,,0.00,3,,170
2013-1-4,89,76,64,66,64,63,94,70,40,29.98,29.86,29.77,6,4,1,7,1,,0.00,3,,200
2013-1-5,86,74,62,64,62,61,94,66,43,29.89,29.79,29.74,6,5,2,0,0,,0.00,3,,-1
2013-1-6,86,75,64,63,62,61,94,59,43,29.92,29.82,29.77,6,5,2,5,2,,0.00,4,,250
2013-1-7,82,71,60,63,61,59,94,75,45,29.98,29.90,29.80,6,3,1,0,0,,0.00,3,,-1
2013-1-8,87,74,60,63,60,57,100,68,35,29.98,29.87,29.77,6,2,1,4,1,,0.00,3,,48
2013-1-9,86,72,59,63,57,52,100,68,31,29.95,29.86,29.77,6,2,1,4,1,,0.00,2,,215
2013-1-10,86,70,55,59,56,54,94,68,40,29.95,29.84,29.74,6,4,2,5,1,,0.00,2,,200
2013-1-11,86,72,59,61,59,57,100,71,42,29.95,29.86,29.77,6,4,1,4,1,,0.00,2,,140
2013-1-12,86,74,62,63,58,52,100,65,31,29.98,29.87,29.77,6,4,1,6,1,,0.00,3,,211
2013-1-13,82,70,59,61,58,55,94,68,45,29.98,29.87,29.77,6,4,2,6,1,,0.00,3,,159
2013-1-14,80,70,59,59,58,57,94,75,48,29.98,29.90,29.80,6,3,1,0,0,,0.00,3,,-1
2013-1-15,86,72,59,63,60,59,100,73,43,30.01,29.92,29.83,6,3,1,4,1,,0.00,2,,245
2013-1-16,87,73,59,59,58,57,94,67,38,30.04,29.95,29.86,6,4,1,4,0,,0.00,2,,260
2013-1-17,86,72,59,64,61,57,94,67,45,30.09,29.97,29.89,6,4,1,4,1,,0.00,3,,10
2013-1-18,84,74,64,64,61,57,94,66,45,30.12,30.03,29.95,6,4,1,4,0,,0.00,5,,150
2013-1-19,86,72,57,59,57,55,94,66,37,30.09,29.98,29.89,6,4,1,5,0,,0.00,2,,220
2013-1-20,86,72,57,59,57,55,94,63,35,30.06,29.96,29.89,6,4,2,6,1,,0.00,1,,313
2013-1-21,87,72,57,59,56,54,100,64,33,30.06,29.96,29.86,6,2,1,4,1,,0.00,1,,205
2013-1-22,89,73,57,59,57,55,94,64,33,30.06,29.93,29.83,6,3,1,0,0,,0.00,1,,-1
2013-1-23,89,74,60,81,64,59,94,72,38,30.01,29.89,29.80,6,4,1,5,1,,0.00,4,,250
2013-1-24,91,76,62,64,61,59,94,65,34,29.98,29.89,29.77,6,4,1,5,1,,0.00,2,,301
2013-1-25,93,76,60,61,59,57,94,61,30,29.98,29.85,29.77,6,4,1,6,1,,0.00,2,,176
2013-1-26,91,76,62,61,56,48,94,61,24,29.95,29.86,29.77,6,4,1,5,1,,0.00,1,,280
2013-1-27,87,73,59,68,62,57,94,70,48,30.01,29.90,29.80,6,4,1,0,0,,0.00,2,,-1
2013-1-28,87,76,66,66,65,64,94,71,49,29.98,29.91,29.83,6,4,1,4,1,,0.00,6,,0
2013-1-29,86,77,68,68,66,64,94,73,48,30.01,29.92,29.86,6,4,1,6,1,,0.00,3,,203
2013-1-30,86,78,71,70,67,66,94,72,51,30.04,29.96,29.86,6,3,1,6,0,,0.00,7,,90
2013-1-31,80,73,66,68,67,64,94,81,65,30.06,30.00,29.95,6,4,2,5,1,,0.00,5,,120